createdAt,value
2022-12-29T00:00:01.521Z,0.00
2022-12-29T00:01:01.525Z,0.00
2022-12-29T00:02:01.497Z,0.00
2022-12-29T00:03:01.577Z,0.00
2022-12-29T00:04:01.491Z,0.00
2022-12-29T00:05:01.470Z,0.00
2022-12-29T00:06:01.468Z,0.00
2022-12-29T00:07:01.439Z,0.00
2022-12-29T00:08:01.464Z,0.00
2022-12-29T00:09:01.454Z,0.00
2022-12-29T00:10:01.571Z,0.00
2022-12-29T00:11:01.449Z,0.00
2022-12-29T00:12:01.441Z,0.00
2022-12-29T00:13:01.435Z,0.00
2022-12-29T00:14:01.398Z,0.00
2022-12-29T00:15:01.439Z,0.00
2022-12-29T00:16:01.541Z,0.00
2022-12-29T00:17:01.409Z,0.00
2022-12-29T00:18:01.370Z,0.00
2022-12-29T00:19:01.410Z,0.00
2022-12-29T00:20:01.443Z,0.00
2022-12-29T00:21:01.428Z,0.00
2022-12-29T00:22:01.362Z,0.00
2022-12-29T00:23:01.366Z,0.00
2022-12-29T00:24:01.352Z,0.00
2022-12-29T00:25:01.340Z,0.00
2022-12-29T00:26:01.357Z,0.00
2022-12-29T00:27:01.353Z,0.00
2022-12-29T00:28:06.577Z,0.00
2022-12-29T00:29:03.326Z,0.00
2022-12-29T00:30:01.312Z,0.00
2022-12-29T00:31:01.336Z,0.00
2022-12-29T00:32:01.328Z,0.00
2022-12-29T00:33:01.272Z,0.00
2022-12-29T00:34:01.268Z,0.00
2022-12-29T00:35:01.295Z,0.00
2022-12-29T00:36:01.280Z,0.00
2022-12-29T00:37:01.231Z,0.00
2022-12-29T00:38:01.269Z,0.00
2022-12-29T00:39:01.273Z,0.00
2022-12-29T00:40:01.260Z,0.00
2022-12-29T00:41:01.247Z,0.00
2022-12-29T00:42:01.211Z,0.00
2022-12-29T00:43:01.345Z,0.00
2022-12-29T00:44:01.264Z,0.00
2022-12-29T00:45:01.216Z,0.00
2022-12-29T00:46:01.214Z,0.00
2022-12-29T00:47:01.259Z,0.00
2022-12-29T00:48:01.202Z,0.00
2022-12-29T00:49:01.276Z,0.00
2022-12-29T00:50:01.166Z,0.00
2022-12-29T00:51:01.181Z,0.00
2022-12-29T00:52:01.185Z,0.00
2022-12-29T00:53:01.164Z,0.00
2022-12-29T00:54:01.292Z,0.00
2022-12-29T00:55:01.126Z,0.00
2022-12-29T00:56:01.145Z,0.00
2022-12-29T00:57:01.134Z,0.00
2022-12-29T00:58:01.187Z,0.00
2022-12-29T00:59:01.148Z,0.00
2022-12-29T01:00:01.198Z,0.00
2022-12-29T01:01:01.135Z,0.00
2022-12-29T01:02:01.263Z,0.00
2022-12-29T01:03:01.320Z,0.00
2022-12-29T01:04:04.146Z,0.00
2022-12-29T01:05:02.108Z,0.00
2022-12-29T01:06:01.081Z,0.00
2022-12-29T01:07:01.079Z,0.00
2022-12-29T01:08:01.076Z,0.00
2022-12-29T01:09:01.051Z,0.00
2022-12-29T01:10:01.064Z,0.00
2022-12-29T01:11:01.065Z,0.00
2022-12-29T01:12:01.049Z,0.00
2022-12-29T01:13:01.036Z,0.00
2022-12-29T01:14:01.030Z,0.00
2022-12-29T01:15:01.044Z,0.00
2022-12-29T01:16:01.051Z,0.00
2022-12-29T01:17:00.988Z,0.00
2022-12-29T01:18:01.009Z,0.00
2022-12-29T01:19:01.023Z,0.00
2022-12-29T01:20:01.007Z,0.00
2022-12-29T01:21:00.975Z,0.00
2022-12-29T01:22:01.091Z,0.00
2022-12-29T01:23:00.983Z,0.00
2022-12-29T01:24:01.011Z,0.00
2022-12-29T01:25:01.004Z,0.00
2022-12-29T01:26:00.962Z,0.00
2022-12-29T01:27:01.007Z,0.00
2022-12-29T01:28:00.946Z,0.00
2022-12-29T01:29:00.934Z,0.00
2022-12-29T01:30:00.944Z,0.00
2022-12-29T01:31:00.904Z,0.00
2022-12-29T01:32:00.980Z,0.00
2022-12-29T01:33:00.954Z,0.00
2022-12-29T01:34:00.904Z,0.00
2022-12-29T01:35:00.911Z,0.00
2022-12-29T01:36:00.886Z,0.00
2022-12-29T01:37:00.884Z,0.00
2022-12-29T01:38:00.987Z,0.00
2022-12-29T01:39:00.860Z,0.00
2022-12-29T01:40:00.894Z,0.00
2022-12-29T01:41:00.878Z,0.00
2022-12-29T01:42:00.858Z,0.00
2022-12-29T01:43:00.850Z,0.00
2022-12-29T01:44:01.930Z,0.00
2022-12-29T01:45:00.838Z,0.00
2022-12-29T01:46:00.856Z,0.00
2022-12-29T01:47:00.816Z,0.00
2022-12-29T01:48:00.843Z,0.00
2022-12-29T01:49:00.868Z,0.00
2022-12-29T01:50:00.829Z,0.00
2022-12-29T01:51:00.778Z,0.00
2022-12-29T01:52:00.808Z,0.00
2022-12-29T01:53:00.788Z,0.00
2022-12-29T01:54:00.790Z,0.00
2022-12-29T01:55:00.822Z,0.00
2022-12-29T01:56:00.740Z,0.00
2022-12-29T01:57:00.784Z,0.00
2022-12-29T01:58:00.802Z,0.00
2022-12-29T01:59:00.780Z,0.00
2022-12-29T02:00:00.803Z,0.00
2022-12-29T02:01:00.814Z,0.00
2022-12-29T02:02:00.773Z,0.00
2022-12-29T02:03:00.825Z,0.00
2022-12-29T02:04:00.762Z,0.00
2022-12-29T02:05:04.487Z,0.00
2022-12-29T02:06:01.712Z,0.00
2022-12-29T02:07:00.741Z,0.00
2022-12-29T02:08:01.720Z,0.00
2022-12-29T02:09:00.757Z,0.00
2022-12-29T02:10:00.687Z,0.00
2022-12-29T02:11:00.721Z,0.00
2022-12-29T02:12:00.677Z,0.00
2022-12-29T02:13:00.695Z,0.00
2022-12-29T02:14:03.556Z,0.00
2022-12-29T02:15:00.715Z,0.00
2022-12-29T02:16:00.745Z,0.00
2022-12-29T02:17:00.664Z,0.00
2022-12-29T02:18:00.669Z,0.00
2022-12-29T02:19:00.634Z,0.00
2022-12-29T02:20:00.637Z,0.00
2022-12-29T02:21:00.666Z,0.00
2022-12-29T02:22:00.648Z,0.00
2022-12-29T02:23:00.643Z,0.00
2022-12-29T02:24:00.631Z,0.00
2022-12-29T02:25:00.647Z,0.00
2022-12-29T02:26:00.584Z,0.00
2022-12-29T02:27:00.606Z,0.00
2022-12-29T02:28:00.607Z,0.00
2022-12-29T02:29:00.598Z,0.00
2022-12-29T02:30:00.612Z,0.00
2022-12-29T02:31:00.572Z,0.00
2022-12-29T02:32:01.579Z,0.00
2022-12-29T02:33:00.575Z,0.00
2022-12-29T02:34:00.581Z,0.00
2022-12-29T02:35:00.545Z,0.00
2022-12-29T02:36:00.561Z,0.00
2022-12-29T02:37:00.510Z,0.00
2022-12-29T02:38:00.488Z,0.00
2022-12-29T02:39:00.515Z,0.00
2022-12-29T02:40:00.536Z,0.00
2022-12-29T02:41:00.542Z,0.00
2022-12-29T02:42:00.507Z,0.00
2022-12-29T02:43:00.522Z,0.00
2022-12-29T02:44:00.494Z,0.00
2022-12-29T02:45:00.522Z,0.00
2022-12-29T02:46:00.543Z,0.00
2022-12-29T02:47:00.514Z,0.00
2022-12-29T02:48:00.459Z,0.00
2022-12-29T02:49:00.459Z,0.00
2022-12-29T02:50:01.476Z,0.00
2022-12-29T02:51:00.466Z,0.00
2022-12-29T02:52:00.454Z,0.00
2022-12-29T02:53:00.457Z,0.00
2022-12-29T02:54:00.440Z,0.00
2022-12-29T02:55:00.439Z,0.00
2022-12-29T02:56:00.410Z,0.00
2022-12-29T02:57:00.422Z,0.00
2022-12-29T02:58:00.427Z,0.00
2022-12-29T02:59:00.442Z,0.00
2022-12-29T03:00:00.393Z,0.00
2022-12-29T03:01:00.441Z,0.00
2022-12-29T03:02:00.523Z,0.00
2022-12-29T03:03:00.498Z,0.00
2022-12-29T03:04:00.385Z,0.00
2022-12-29T03:05:00.379Z,0.00
2022-12-29T03:06:00.412Z,0.00
2022-12-29T03:07:00.363Z,0.00
2022-12-29T03:08:00.360Z,0.00
2022-12-29T03:09:00.328Z,0.00
2022-12-29T03:10:00.333Z,0.00
2022-12-29T03:11:00.344Z,0.00
2022-12-29T03:12:00.339Z,0.00
2022-12-29T03:13:00.313Z,0.00
2022-12-29T03:14:00.313Z,0.00
2022-12-29T03:15:00.324Z,0.00
2022-12-29T03:16:00.267Z,0.00
2022-12-29T03:17:00.349Z,0.00
2022-12-29T03:18:00.277Z,0.00
2022-12-29T03:19:00.329Z,0.00
2022-12-29T03:20:00.292Z,0.00
2022-12-29T03:21:00.289Z,0.00
2022-12-29T03:22:00.252Z,0.00
2022-12-29T03:23:00.326Z,0.00
2022-12-29T03:24:00.291Z,0.00
2022-12-29T03:25:00.228Z,0.00
2022-12-29T03:26:00.240Z,0.00
2022-12-29T03:27:00.261Z,0.00
2022-12-29T03:28:00.246Z,0.00
2022-12-29T03:29:00.243Z,0.00
2022-12-29T03:30:00.255Z,0.00
2022-12-29T03:31:00.307Z,0.00
2022-12-29T03:32:00.225Z,0.00
2022-12-29T03:33:00.169Z,0.00
2022-12-29T03:34:00.242Z,0.00
2022-12-29T03:35:00.201Z,0.00
2022-12-29T03:36:00.141Z,0.00
2022-12-29T03:37:00.185Z,0.00
2022-12-29T03:38:00.170Z,0.00
2022-12-29T03:39:00.156Z,0.00
2022-12-29T03:40:00.177Z,0.00
2022-12-29T03:41:00.185Z,0.00
2022-12-29T03:42:00.188Z,0.00
2022-12-29T03:43:00.137Z,0.00
2022-12-29T03:44:00.170Z,0.00
2022-12-29T03:45:00.245Z,0.00
2022-12-29T03:46:00.204Z,0.00
2022-12-29T03:47:00.139Z,0.00
2022-12-29T03:48:00.114Z,0.00
2022-12-29T03:49:00.117Z,0.00
2022-12-29T03:50:00.149Z,0.00
2022-12-29T03:51:00.143Z,0.00
2022-12-29T03:52:00.068Z,0.00
2022-12-29T03:53:00.112Z,0.00
2022-12-29T03:54:00.065Z,0.00
2022-12-29T03:55:00.079Z,0.00
2022-12-29T03:56:00.049Z,0.00
2022-12-29T03:57:00.080Z,0.00
2022-12-29T03:58:00.033Z,0.00
2022-12-29T03:59:00.072Z,0.00
2022-12-29T04:00:00.036Z,0.00
2022-12-29T04:01:00.061Z,0.00
2022-12-29T04:02:00.233Z,0.00
2022-12-29T04:03:00.188Z,0.00
2022-12-29T04:03:59.993Z,0.00
2022-12-29T04:05:00.024Z,0.00
2022-12-29T04:05:59.975Z,0.00
2022-12-29T04:07:00.040Z,0.00
2022-12-29T04:07:59.977Z,0.00
2022-12-29T04:08:59.971Z,0.00
2022-12-29T04:09:59.985Z,0.00
2022-12-29T04:10:59.996Z,0.00
2022-12-29T04:11:59.987Z,0.00
2022-12-29T04:12:59.996Z,0.00
2022-12-29T04:13:59.995Z,0.00
2022-12-29T04:14:59.956Z,0.00
2022-12-29T04:16:00.011Z,0.00
2022-12-29T04:16:59.940Z,0.00
2022-12-29T04:17:59.976Z,0.00
2022-12-29T04:18:59.934Z,0.00
2022-12-29T04:19:59.947Z,0.00
2022-12-29T04:20:59.949Z,0.00
2022-12-29T04:21:59.928Z,0.00
2022-12-29T04:22:59.912Z,0.00
2022-12-29T04:23:59.958Z,0.00
2022-12-29T04:24:59.912Z,0.00
2022-12-29T04:25:59.844Z,0.00
2022-12-29T04:27:00.919Z,0.00
2022-12-29T04:27:59.877Z,0.00
2022-12-29T04:28:59.978Z,0.00
2022-12-29T04:29:59.874Z,0.00
2022-12-29T04:30:59.883Z,0.00
2022-12-29T04:31:59.872Z,0.00
2022-12-29T04:32:59.826Z,0.00
2022-12-29T04:33:59.883Z,0.00
2022-12-29T04:34:59.993Z,0.00
2022-12-29T04:35:59.822Z,0.00
2022-12-29T04:36:59.860Z,0.00
2022-12-29T04:37:59.804Z,0.00
2022-12-29T04:38:59.826Z,0.00
2022-12-29T04:39:59.932Z,0.00
2022-12-29T04:40:59.760Z,0.00
2022-12-29T04:41:59.788Z,0.00
2022-12-29T04:42:59.806Z,0.00
2022-12-29T04:43:59.768Z,0.00
2022-12-29T04:44:59.758Z,0.00
2022-12-29T04:45:59.879Z,0.00
2022-12-29T04:46:59.802Z,0.00
2022-12-29T04:47:59.786Z,0.00
2022-12-29T04:48:59.788Z,0.00
2022-12-29T04:49:59.760Z,0.00
2022-12-29T04:50:59.768Z,0.00
2022-12-29T04:51:59.726Z,0.00
2022-12-29T04:53:00.762Z,0.00
2022-12-29T04:53:59.747Z,0.00
2022-12-29T04:54:59.703Z,0.00
2022-12-29T04:55:59.732Z,0.00
2022-12-29T04:56:59.840Z,0.00
2022-12-29T04:57:59.754Z,0.00
2022-12-29T04:58:59.662Z,0.00
2022-12-29T04:59:59.686Z,0.00
2022-12-29T05:00:59.675Z,0.00
2022-12-29T05:01:59.783Z,0.00
2022-12-29T05:02:59.799Z,0.00
2022-12-29T05:03:59.739Z,0.00
2022-12-29T05:04:59.660Z,0.00
2022-12-29T05:05:59.671Z,0.00
2022-12-29T05:06:59.651Z,0.00
2022-12-29T05:07:59.746Z,0.00
2022-12-29T05:08:59.647Z,0.00
2022-12-29T05:09:59.629Z,0.00
2022-12-29T05:10:59.628Z,0.00
2022-12-29T05:11:59.613Z,0.00
2022-12-29T05:12:59.640Z,0.00
2022-12-29T05:13:59.618Z,0.00
2022-12-29T05:14:59.581Z,0.00
2022-12-29T05:15:59.694Z,0.00
2022-12-29T05:16:59.616Z,0.00
2022-12-29T05:17:59.622Z,0.00
2022-12-29T05:18:59.608Z,0.00
2022-12-29T05:19:59.591Z,0.00
2022-12-29T05:20:59.558Z,0.00
2022-12-29T05:21:59.551Z,0.00
2022-12-29T05:22:59.599Z,0.00
2022-12-29T05:23:59.587Z,0.00
2022-12-29T05:24:59.533Z,0.00
2022-12-29T05:25:59.538Z,0.00
2022-12-29T05:26:59.559Z,0.00
2022-12-29T05:27:59.503Z,0.00
2022-12-29T05:28:59.531Z,0.00
2022-12-29T05:29:59.518Z,0.00
2022-12-29T05:30:59.559Z,0.00
2022-12-29T05:31:59.499Z,0.00
2022-12-29T05:32:59.511Z,0.00
2022-12-29T05:33:59.493Z,0.00
2022-12-29T05:34:59.516Z,0.00
2022-12-29T05:35:59.494Z,0.00
2022-12-29T05:36:59.508Z,0.00
2022-12-29T05:37:59.493Z,0.00
2022-12-29T05:38:59.514Z,0.00
2022-12-29T05:39:59.441Z,0.00
2022-12-29T05:40:59.571Z,0.00
2022-12-29T05:41:59.441Z,0.00
2022-12-29T05:42:59.454Z,0.00
2022-12-29T05:43:59.453Z,0.00
2022-12-29T05:44:59.393Z,0.00
2022-12-29T05:45:59.553Z,0.00
2022-12-29T05:46:59.499Z,0.00
2022-12-29T05:47:59.383Z,0.00
2022-12-29T05:48:59.388Z,0.00
2022-12-29T05:49:59.414Z,0.00
2022-12-29T05:50:59.387Z,0.00
2022-12-29T05:51:59.451Z,0.00
2022-12-29T05:52:59.399Z,0.00
2022-12-29T05:53:59.356Z,0.00
2022-12-29T05:54:59.380Z,0.00
2022-12-29T05:55:59.368Z,0.00
2022-12-29T05:56:59.377Z,0.00
2022-12-29T05:57:59.311Z,0.00
2022-12-29T05:58:59.374Z,0.00
2022-12-29T05:59:59.351Z,0.00
2022-12-29T06:00:59.328Z,0.00
2022-12-29T06:01:59.534Z,0.00
2022-12-29T06:02:59.561Z,0.00
2022-12-29T06:03:59.407Z,0.00
2022-12-29T06:04:59.272Z,0.00
2022-12-29T06:05:59.282Z,0.00
2022-12-29T06:06:59.315Z,0.00
2022-12-29T06:07:59.302Z,0.00
2022-12-29T06:08:59.276Z,0.00
2022-12-29T06:09:59.281Z,0.00
2022-12-29T06:10:59.303Z,0.00
2022-12-29T06:11:59.266Z,0.00
2022-12-29T06:12:59.244Z,0.00
2022-12-29T06:13:59.274Z,0.00
2022-12-29T06:14:59.240Z,0.00
2022-12-29T06:15:59.312Z,0.00
2022-12-29T06:16:59.214Z,0.00
2022-12-29T06:17:59.262Z,0.00
2022-12-29T06:18:59.256Z,0.00
2022-12-29T06:19:59.204Z,0.00
2022-12-29T06:20:59.176Z,0.00
2022-12-29T06:21:59.194Z,0.00
2022-12-29T06:22:59.195Z,0.00
2022-12-29T06:23:59.204Z,0.00
2022-12-29T06:25:04.626Z,0.00
2022-12-29T06:25:59.175Z,0.00
2022-12-29T06:26:59.166Z,0.00
2022-12-29T06:27:59.161Z,0.00
2022-12-29T06:28:59.177Z,0.00
2022-12-29T06:29:59.175Z,0.00
2022-12-29T06:30:59.152Z,0.00
2022-12-29T06:31:59.325Z,0.00
2022-12-29T06:32:59.169Z,0.00
2022-12-29T06:34:03.516Z,0.00
2022-12-29T06:35:00.276Z,0.00
2022-12-29T06:35:59.136Z,0.00
2022-12-29T06:36:59.093Z,0.00
2022-12-29T06:37:59.071Z,0.00
2022-12-29T06:38:59.074Z,0.00
2022-12-29T06:39:59.111Z,0.00
2022-12-29T06:40:59.203Z,0.00
2022-12-29T06:41:59.084Z,0.00
2022-12-29T06:42:59.088Z,0.00
2022-12-29T06:43:59.065Z,0.00
2022-12-29T06:44:59.076Z,0.00
2022-12-29T06:45:59.110Z,0.00
2022-12-29T06:46:59.069Z,0.00
2022-12-29T06:47:59.076Z,0.00
2022-12-29T06:48:59.064Z,0.00
2022-12-29T06:49:59.107Z,0.00
2022-12-29T06:50:59.002Z,0.00
2022-12-29T06:51:59.042Z,0.00
2022-12-29T06:52:59.035Z,0.00
2022-12-29T06:53:59.024Z,0.00
2022-12-29T06:54:58.968Z,0.00
2022-12-29T06:55:58.971Z,0.00
2022-12-29T06:56:59.006Z,0.00
2022-12-29T06:57:59.014Z,0.00
2022-12-29T06:58:58.998Z,0.00
2022-12-29T06:59:58.976Z,0.00
2022-12-29T07:00:59.041Z,4.00
2022-12-29T07:01:59.139Z,0.00
2022-12-29T07:02:59.130Z,4.00
2022-12-29T07:03:58.933Z,4.00
2022-12-29T07:04:58.970Z,4.00
2022-12-29T07:05:58.917Z,4.00
2022-12-29T07:06:58.952Z,4.00
2022-12-29T07:07:58.950Z,8.00
2022-12-29T07:08:58.948Z,8.00
2022-12-29T07:09:58.877Z,12.00
2022-12-29T07:10:58.882Z,12.00
2022-12-29T07:11:58.861Z,8.00
2022-12-29T07:12:58.923Z,12.00
2022-12-29T07:14:02.199Z,8.00
2022-12-29T07:14:58.860Z,16.00
2022-12-29T07:15:58.893Z,28.00
2022-12-29T07:16:58.866Z,24.00
2022-12-29T07:17:58.878Z,24.00
2022-12-29T07:18:58.891Z,24.00
2022-12-29T07:19:58.842Z,24.00
2022-12-29T07:20:58.832Z,20.00
2022-12-29T07:21:58.860Z,24.00
2022-12-29T07:22:58.831Z,28.00
2022-12-29T07:23:58.886Z,24.00
2022-12-29T07:24:58.956Z,20.00
2022-12-29T07:25:58.846Z,24.00
2022-12-29T07:26:58.831Z,28.00
2022-12-29T07:27:58.841Z,24.00
2022-12-29T07:28:58.803Z,20.00
2022-12-29T07:29:58.799Z,20.00
2022-12-29T07:30:58.773Z,24.00
2022-12-29T07:31:58.817Z,24.00
2022-12-29T07:32:58.757Z,28.00
2022-12-29T07:33:58.791Z,36.00
2022-12-29T07:34:58.774Z,48.00
2022-12-29T07:35:58.849Z,44.00
2022-12-29T07:36:58.775Z,60.00
2022-12-29T07:37:58.728Z,80.00
2022-12-29T07:38:58.722Z,80.00
2022-12-29T07:39:58.771Z,68.00
2022-12-29T07:40:58.855Z,56.00
2022-12-29T07:42:04.600Z,56.00
2022-12-29T07:42:59.714Z,52.00
2022-12-29T07:43:58.704Z,68.00
2022-12-29T07:44:58.709Z,72.00
2022-12-29T07:45:58.741Z,76.00
2022-12-29T07:46:59.347Z,76.00
2022-12-29T07:47:58.666Z,88.00
2022-12-29T07:48:58.679Z,108.00
2022-12-29T07:49:58.686Z,124.00
2022-12-29T07:50:58.629Z,132.00
2022-12-29T07:51:58.771Z,132.00
2022-12-29T07:52:58.650Z,128.00
2022-12-29T07:53:58.648Z,132.00
2022-12-29T07:54:58.641Z,128.00
2022-12-29T07:55:58.647Z,116.00
2022-12-29T07:56:58.631Z,128.00
2022-12-29T07:57:58.663Z,132.00
2022-12-29T07:58:58.593Z,128.00
2022-12-29T07:59:59.638Z,140.00
2022-12-29T08:00:58.662Z,164.00
2022-12-29T08:01:58.638Z,188.00
2022-12-29T08:02:58.705Z,196.00
2022-12-29T08:03:58.600Z,256.00
2022-12-29T08:04:58.592Z,288.00
2022-12-29T08:05:58.586Z,236.00
2022-12-29T08:06:58.565Z,252.00
2022-12-29T08:07:58.570Z,248.00
2022-12-29T08:09:01.633Z,312.00
2022-12-29T08:09:59.534Z,364.00
2022-12-29T08:10:58.525Z,312.00
2022-12-29T08:11:58.534Z,304.00
2022-12-29T08:12:58.602Z,328.00
2022-12-29T08:13:58.551Z,280.00
2022-12-29T08:14:58.520Z,324.00
2022-12-29T08:15:58.578Z,340.00
2022-12-29T08:16:58.499Z,292.00
2022-12-29T08:17:58.538Z,352.00
2022-12-29T08:18:58.468Z,448.00
2022-12-29T08:19:58.536Z,500.00
2022-12-29T08:20:58.496Z,524.00
2022-12-29T08:21:58.486Z,432.00
2022-12-29T08:22:58.444Z,440.00
2022-12-29T08:23:58.475Z,420.00
2022-12-29T08:24:58.584Z,500.00
2022-12-29T08:25:58.441Z,580.00
2022-12-29T08:26:59.403Z,512.00
2022-12-29T08:27:58.450Z,528.00
2022-12-29T08:28:58.426Z,536.00
2022-12-29T08:29:58.463Z,480.00
2022-12-29T08:30:58.520Z,448.00
2022-12-29T08:31:58.406Z,448.00
2022-12-29T08:32:58.454Z,416.00
2022-12-29T08:33:58.425Z,412.00
2022-12-29T08:34:58.433Z,388.00
2022-12-29T08:35:58.448Z,396.00
2022-12-29T08:36:58.412Z,428.00
2022-12-29T08:37:58.406Z,456.00
2022-12-29T08:38:58.362Z,540.00
2022-12-29T08:39:58.398Z,516.00
2022-12-29T08:40:58.358Z,492.00
2022-12-29T08:41:58.386Z,508.00
2022-12-29T08:42:58.332Z,620.00
2022-12-29T08:43:58.370Z,592.00
2022-12-29T08:44:58.352Z,472.00
2022-12-29T08:45:58.390Z,536.00
2022-12-29T08:46:58.404Z,624.00
2022-12-29T08:47:58.346Z,664.00
2022-12-29T08:48:58.357Z,596.00
2022-12-29T08:49:58.319Z,564.00
2022-12-29T08:50:58.333Z,632.00
2022-12-29T08:51:58.317Z,584.00
2022-12-29T08:52:58.407Z,536.00
2022-12-29T08:53:58.297Z,592.00
2022-12-29T08:54:58.261Z,580.00
2022-12-29T08:56:03.946Z,508.00
2022-12-29T08:57:00.265Z,472.00
2022-12-29T08:57:58.357Z,452.00
2022-12-29T08:58:58.236Z,372.00
2022-12-29T08:59:58.271Z,376.00
2022-12-29T09:00:58.264Z,432.00
2022-12-29T09:01:58.355Z,468.00
2022-12-29T09:02:58.403Z,508.00
2022-12-29T09:04:16.254Z,468.00
2022-12-29T09:05:00.283Z,456.00
2022-12-29T09:05:58.203Z,496.00
2022-12-29T09:06:58.254Z,584.00
2022-12-29T09:07:58.231Z,544.00
2022-12-29T09:08:58.266Z,500.00
2022-12-29T09:09:58.186Z,584.00
2022-12-29T09:10:58.196Z,664.00
2022-12-29T09:11:58.199Z,716.00
2022-12-29T09:12:58.159Z,588.00
2022-12-29T09:13:58.231Z,416.00
2022-12-29T09:14:58.196Z,384.00
2022-12-29T09:15:58.253Z,384.00
2022-12-29T09:16:58.167Z,428.00
2022-12-29T09:17:58.145Z,440.00
2022-12-29T09:18:58.134Z,432.00
2022-12-29T09:19:58.177Z,372.00
2022-12-29T09:20:58.116Z,324.00
2022-12-29T09:21:58.138Z,300.00
2022-12-29T09:22:58.128Z,332.00
2022-12-29T09:23:58.111Z,392.00
2022-12-29T09:24:58.133Z,404.00
2022-12-29T09:25:58.179Z,460.00
2022-12-29T09:26:58.121Z,476.00
2022-12-29T09:27:58.102Z,476.00
2022-12-29T09:28:58.076Z,504.00
2022-12-29T09:29:58.095Z,448.00
2022-12-29T09:30:58.103Z,552.00
2022-12-29T09:31:58.107Z,760.00
2022-12-29T09:32:59.997Z,880.00
2022-12-29T09:33:58.096Z,992.00
2022-12-29T09:34:58.068Z,1280.00
2022-12-29T09:35:58.041Z,1856.00
2022-12-29T09:36:58.044Z,2504.00
2022-12-29T09:37:58.039Z,2704.00
2022-12-29T09:38:58.020Z,2684.00
2022-12-29T09:39:58.024Z,2552.00
2022-12-29T09:40:58.006Z,2048.00
2022-12-29T09:41:58.040Z,1808.00
2022-12-29T09:42:58.011Z,1804.00
2022-12-29T09:43:57.960Z,1936.00
2022-12-29T09:44:57.962Z,2132.00
2022-12-29T09:45:57.960Z,2088.00
2022-12-29T09:46:57.969Z,2024.00
2022-12-29T09:47:58.091Z,1892.00
2022-12-29T09:48:57.921Z,1796.00
2022-12-29T09:49:57.952Z,1684.00
2022-12-29T09:50:57.929Z,1608.00
2022-12-29T09:51:57.966Z,1548.00
2022-12-29T09:52:58.034Z,1484.00
2022-12-29T09:53:57.912Z,1204.00
2022-12-29T09:55:02.996Z,916.00
2022-12-29T09:55:57.920Z,840.00
2022-12-29T09:56:57.927Z,800.00
2022-12-29T09:57:57.909Z,716.00
2022-12-29T09:58:57.927Z,756.00
2022-12-29T09:59:57.865Z,788.00
2022-12-29T10:00:57.889Z,960.00
2022-12-29T10:01:58.188Z,964.00
2022-12-29T10:02:58.011Z,964.00
2022-12-29T10:03:57.907Z,928.00
2022-12-29T10:04:57.874Z,920.00
2022-12-29T10:05:57.816Z,1016.00
2022-12-29T10:07:27.915Z,1284.00
2022-12-29T10:07:59.817Z,1460.00
2022-12-29T10:08:57.845Z,1480.00
2022-12-29T10:09:57.849Z,1184.00
2022-12-29T10:10:57.794Z,1128.00
2022-12-29T10:11:57.798Z,1000.00
2022-12-29T10:12:57.794Z,844.00
2022-12-29T10:13:57.781Z,800.00
2022-12-29T10:14:57.902Z,844.00
2022-12-29T10:15:57.929Z,764.00
2022-12-29T10:16:57.758Z,664.00
2022-12-29T10:17:57.784Z,612.00
2022-12-29T10:18:57.753Z,644.00
2022-12-29T10:19:57.758Z,632.00
2022-12-29T10:20:57.779Z,628.00
2022-12-29T10:21:57.744Z,772.00
2022-12-29T10:22:57.723Z,748.00
2022-12-29T10:23:57.738Z,636.00
2022-12-29T10:24:57.733Z,736.00
2022-12-29T10:25:57.774Z,752.00
2022-12-29T10:26:57.711Z,664.00
2022-12-29T10:27:57.723Z,532.00
2022-12-29T10:28:57.731Z,592.00
2022-12-29T10:29:57.741Z,1100.00
2022-12-29T10:30:57.661Z,1940.00
2022-12-29T10:31:57.763Z,1436.00
2022-12-29T10:32:57.656Z,964.00
2022-12-29T10:33:57.683Z,764.00
2022-12-29T10:34:57.679Z,704.00
2022-12-29T10:35:57.640Z,760.00
2022-12-29T10:36:57.766Z,796.00
2022-12-29T10:37:57.669Z,660.00
2022-12-29T10:38:57.651Z,524.00
2022-12-29T10:39:57.638Z,396.00
2022-12-29T10:40:57.614Z,428.00
2022-12-29T10:41:57.620Z,404.00
2022-12-29T10:42:57.770Z,368.00
2022-12-29T10:43:57.628Z,356.00
2022-12-29T10:44:57.622Z,368.00
2022-12-29T10:45:57.729Z,380.00
2022-12-29T10:46:57.571Z,396.00
2022-12-29T10:47:57.701Z,384.00
2022-12-29T10:48:57.597Z,404.00
2022-12-29T10:49:57.576Z,544.00
2022-12-29T10:51:01.776Z,556.00
2022-12-29T10:51:58.561Z,480.00
2022-12-29T10:52:57.562Z,476.00
2022-12-29T10:53:57.559Z,516.00
2022-12-29T10:54:57.517Z,492.00
2022-12-29T10:55:57.553Z,468.00
2022-12-29T10:56:57.533Z,460.00
2022-12-29T10:57:57.527Z,432.00
2022-12-29T10:58:57.556Z,484.00
2022-12-29T10:59:57.511Z,456.00
2022-12-29T11:00:57.600Z,492.00
2022-12-29T11:01:57.678Z,592.00
2022-12-29T11:02:57.689Z,564.00
2022-12-29T11:03:57.510Z,600.00
2022-12-29T11:04:57.517Z,572.00
2022-12-29T11:05:57.464Z,436.00
2022-12-29T11:06:57.495Z,668.00
2022-12-29T11:07:57.468Z,1012.00
2022-12-29T11:08:57.508Z,1108.00
2022-12-29T11:09:57.555Z,1200.00
2022-12-29T11:10:57.459Z,1204.00
2022-12-29T11:11:57.441Z,1068.00
2022-12-29T11:12:57.441Z,924.00
2022-12-29T11:13:57.435Z,792.00
2022-12-29T11:14:57.390Z,784.00
2022-12-29T11:15:57.516Z,812.00
2022-12-29T11:16:57.440Z,728.00
2022-12-29T11:17:57.388Z,644.00
2022-12-29T11:18:57.403Z,616.00
2022-12-29T11:19:57.388Z,708.00
2022-12-29T11:20:57.477Z,844.00
2022-12-29T11:21:57.373Z,836.00
2022-12-29T11:22:57.379Z,756.00
2022-12-29T11:23:57.426Z,880.00
2022-12-29T11:24:57.384Z,1040.00
2022-12-29T11:25:57.359Z,1192.00
2022-12-29T11:26:57.400Z,1356.00
2022-12-29T11:27:57.372Z,1580.00
2022-12-29T11:28:57.367Z,2248.00
2022-12-29T11:29:57.376Z,2712.00
2022-12-29T11:30:57.297Z,2444.00
2022-12-29T11:31:57.432Z,2196.00
2022-12-29T11:32:57.307Z,2268.00
2022-12-29T11:33:57.268Z,2520.00
2022-12-29T11:34:57.320Z,2832.00
2022-12-29T11:35:57.282Z,3544.00
2022-12-29T11:36:57.295Z,3204.00
2022-12-29T11:37:57.428Z,3348.00
2022-12-29T11:38:57.246Z,2900.00
2022-12-29T11:39:58.274Z,3632.00
2022-12-29T11:40:57.282Z,3612.00
2022-12-29T11:41:57.277Z,2992.00
2022-12-29T11:42:57.284Z,2780.00
2022-12-29T11:43:57.266Z,2588.00
2022-12-29T11:44:57.257Z,2700.00
2022-12-29T11:45:57.336Z,2016.00
2022-12-29T11:46:57.247Z,1656.00
2022-12-29T11:47:57.224Z,1476.00
2022-12-29T11:48:57.252Z,1420.00
2022-12-29T11:49:58.215Z,1384.00
2022-12-29T11:50:57.197Z,1028.00
2022-12-29T11:51:57.219Z,784.00
2022-12-29T11:52:57.197Z,784.00
2022-12-29T11:53:57.217Z,852.00
2022-12-29T11:54:57.148Z,852.00
2022-12-29T11:55:58.169Z,1164.00
2022-12-29T11:56:57.160Z,1368.00
2022-12-29T11:57:57.135Z,1280.00
2022-12-29T11:58:57.156Z,1160.00
2022-12-29T11:59:57.395Z,1336.00
2022-12-29T12:00:57.141Z,1288.00
2022-12-29T12:01:57.256Z,1640.00
2022-12-29T12:02:57.161Z,2240.00
2022-12-29T12:03:57.170Z,2632.00
2022-12-29T12:04:57.229Z,3180.00
2022-12-29T12:05:57.101Z,4016.00
2022-12-29T12:06:57.103Z,4088.00
2022-12-29T12:07:57.133Z,4816.00
2022-12-29T12:08:57.089Z,3884.00
2022-12-29T12:10:01.567Z,3408.00
2022-12-29T12:10:57.181Z,3504.00
2022-12-29T12:11:57.090Z,3628.00
2022-12-29T12:12:57.080Z,3404.00
2022-12-29T12:13:57.073Z,2556.00
2022-12-29T12:14:57.043Z,2164.00
2022-12-29T12:15:57.553Z,2704.00
2022-12-29T12:16:57.057Z,3188.00
2022-12-29T12:17:57.060Z,2728.00
2022-12-29T12:18:56.991Z,2932.00
2022-12-29T12:19:56.991Z,2852.00
2022-12-29T12:20:57.000Z,3368.00
2022-12-29T12:21:57.139Z,4208.00
2022-12-29T12:22:57.007Z,3992.00
2022-12-29T12:23:57.011Z,3780.00
2022-12-29T12:24:57.029Z,4020.00
2022-12-29T12:25:56.958Z,3792.00
2022-12-29T12:26:57.002Z,3592.00
2022-12-29T12:27:56.961Z,2904.00
2022-12-29T12:28:57.007Z,2588.00
2022-12-29T12:29:56.943Z,1824.00
2022-12-29T12:30:56.977Z,1348.00
2022-12-29T12:31:56.958Z,1072.00
2022-12-29T12:32:56.963Z,956.00
2022-12-29T12:33:56.922Z,876.00
2022-12-29T12:34:56.942Z,1176.00
2022-12-29T12:35:56.952Z,1356.00
2022-12-29T12:36:56.903Z,1560.00
2022-12-29T12:37:57.009Z,1904.00
2022-12-29T12:38:56.935Z,2492.00
2022-12-29T12:39:56.884Z,2896.00
2022-12-29T12:40:56.897Z,3104.00
2022-12-29T12:41:56.894Z,3892.00
2022-12-29T12:42:56.864Z,4148.00
2022-12-29T12:43:56.968Z,4660.00
2022-12-29T12:44:56.848Z,4636.00
2022-12-29T12:45:56.941Z,4696.00
2022-12-29T12:46:56.951Z,4752.00
2022-12-29T12:47:56.882Z,4800.00
2022-12-29T12:48:56.828Z,4472.00
2022-12-29T12:49:56.859Z,3852.00
2022-12-29T12:50:56.810Z,3752.00
2022-12-29T12:52:02.964Z,3548.00